Time;durP1;ratioP1;P1;durP2;ratioP2;P2;SDS_P1;SDS_P2;PMS_P1;PMS_P2;Temp;Humidity;BMP_temperature;BMP_pressure;BME280_temperature;BME280_humidity;BME280_pressure;Samples;Min_cycle;Max_cycle;Signal;HPM_P1;HPM_P2
2021/11/10 00:00:51;;;;;;;12.38;6.55;;;;;;;;;;5037830;28;20175;-77
2021/11/10 00:03:18;;;;;;;8.90;6.47;;;;;;;;;;5019541;28;20202;-77
2021/11/10 00:05:44;;;;;;;10.98;7.30;;;;;;;;;;5021172;28;20603;-77
2021/11/10 00:08:10;;;;;;;9.32;6.22;;;;;;;;;;5020956;28;20549;-77
2021/11/10 00:10:36;;;;;;;8.70;6.50;;;;;;;;;;5020016;28;20183;-77
2021/11/10 00:13:18;;;;;;;11.20;5.95;;;;;;;;;;5022706;28;20217;-77
2021/11/10 00:15:46;;;;;;;8.35;5.50;;;;;;;;;;5019901;28;20336;-77
2021/11/10 00:18:12;;;;;;;9.57;5.90;;;;;;;;;;5020008;28;20230;-77
2021/11/10 00:20:38;;;;;;;10.77;6.72;;;;;;;;;;5021004;28;20182;-77
2021/11/10 00:23:04;;;;;;;8.50;6.05;;;;;;;;;;5019727;28;20257;-77
2021/11/10 00:25:30;;;;;;;7.15;5.90;;;;;;;;;;5021647;28;20218;-77
2021/11/10 00:27:56;;;;;;;12.73;6.00;;;;;;;;;;5018400;28;20186;-78
2021/11/10 00:30:22;;;;;;;11.95;6.25;;;;;;;;;;5017991;28;20202;-77
2021/11/10 00:32:48;;;;;;;10.38;6.40;;;;;;;;;;5020274;28;20198;-78
2021/11/10 00:35:14;;;;;;;9.77;6.83;;;;;;;;;;5019196;28;20596;-77
2021/11/10 00:37:40;;;;;;;14.98;6.05;;;;;;;;;;5022764;28;20448;-77
2021/11/10 00:40:06;;;;;;;11.55;6.97;;;;;;;;;;5023125;28;20270;-77
2021/11/10 00:42:32;;;;;;;8.32;5.60;;;;;;;;;;5033528;28;20330;-77
2021/11/10 00:44:58;;;;;;;15.90;5.40;;;;;;;;;;5018480;28;20726;-77
2021/11/10 00:47:24;;;;;;;9.38;5.05;;;;;;;;;;5019667;28;20253;-77
2021/11/10 00:49:50;;;;;;;10.55;6.05;;;;;;;;;;5019124;28;20191;-77
2021/11/10 00:52:16;;;;;;;6.55;5.80;;;;;;;;;;5018657;28;20210;-80
2021/11/10 00:54:42;;;;;;;8.25;6.07;;;;;;;;;;5033002;28;20245;-80
2021/11/10 00:57:08;;;;;;;8.05;5.88;;;;;;;;;;5018363;28;20198;-80
2021/11/10 00:59:34;;;;;;;9.25;6.50;;;;;;;;;;5019794;28;20179;-80
2021/11/10 01:02:00;;;;;;;12.50;7.40;;;;;;;;;;5018108;28;20217;-79
2021/11/10 01:04:26;;;;;;;10.38;6.63;;;;;;;;;;5020651;28;20178;-77
2021/11/10 01:06:52;;;;;;;8.98;6.35;;;;;;;;;;5023656;28;20182;-77
2021/11/10 01:09:19;;;;;;;13.18;6.05;;;;;;;;;;5017529;28;20599;-77
2021/11/10 01:11:46;;;;;;;8.43;5.80;;;;;;;;;;5023196;28;20465;-77
2021/11/10 01:14:13;;;;;;;10.18;6.13;;;;;;;;;;5018143;28;20194;-77
2021/11/10 01:16:39;;;;;;;6.88;5.40;;;;;;;;;;5018773;28;20232;-77
2021/11/10 01:19:05;;;;;;;8.95;5.53;;;;;;;;;;5021162;28;20187;-77
2021/11/10 01:21:31;;;;;;;10.13;6.35;;;;;;;;;;5018602;28;20551;-77
2021/11/10 01:23:58;;;;;;;7.00;6.30;;;;;;;;;;5020642;28;20202;-78
2021/11/10 01:26:24;;;;;;;11.73;6.05;;;;;;;;;;5019176;28;20186;-77
2021/11/10 01:28:50;;;;;;;9.95;6.47;;;;;;;;;;5019397;28;20189;-77
2021/11/10 01:31:16;;;;;;;8.35;5.85;;;;;;;;;;5022118;28;20186;-78
2021/11/10 01:33:42;;;;;;;10.90;5.85;;;;;;;;;;5019134;28;20202;-78
2021/11/10 01:36:08;;;;;;;8.90;5.28;;;;;;;;;;5017692;28;20196;-77
2021/11/10 01:38:34;;;;;;;8.07;5.85;;;;;;;;;;5051086;28;20650;-77
2021/11/10 01:41:00;;;;;;;7.53;5.80;;;;;;;;;;5019896;28;20281;-77
2021/11/10 01:43:27;;;;;;;6.60;5.50;;;;;;;;;;5016220;28;20241;-77
2021/11/10 01:45:56;;;;;;;6.75;6.05;;;;;;;;;;5020898;28;20202;-77
2021/11/10 01:48:22;;;;;;;9.50;5.55;;;;;;;;;;5016687;28;20216;-77
2021/11/10 01:50:48;;;;;;;10.40;5.65;;;;;;;;;;5020838;28;20209;-78
2021/11/10 01:53:14;;;;;;;7.45;5.68;;;;;;;;;;5017822;28;20225;-79
2021/11/10 01:55:40;;;;;;;7.28;5.85;;;;;;;;;;5019203;28;20183;-78
2021/11/10 01:58:07;;;;;;;6.97;4.95;;;;;;;;;;5018726;28;20572;-78
2021/11/10 02:00:34;;;;;;;8.00;5.18;;;;;;;;;;5032943;28;20186;-78
2021/11/10 02:03:01;;;;;;;7.75;5.18;;;;;;;;;;5022515;28;20198;-78
2021/11/10 02:05:28;;;;;;;7.07;6.38;;;;;;;;;;5021008;28;20205;-78
2021/11/10 02:07:54;;;;;;;6.97;4.25;;;;;;;;;;5019040;28;20201;-78
2021/11/10 02:10:21;;;;;;;7.13;4.93;;;;;;;;;;5037751;28;20403;-78
2021/11/10 02:12:47;;;;;;;7.22;6.50;;;;;;;;;;5023080;28;20203;-78
2021/11/10 02:15:14;;;;;;;9.90;5.40;;;;;;;;;;5016707;28;20182;-79
2021/11/10 02:17:40;;;;;;;8.55;6.13;;;;;;;;;;5017960;28;20182;-78
2021/11/10 02:20:08;;;;;;;5.50;4.68;;;;;;;;;;5017784;28;20177;-78
2021/11/10 02:22:34;;;;;;;9.32;4.80;;;;;;;;;;5018815;28;20191;-78
2021/11/10 02:25:01;;;;;;;8.35;5.03;;;;;;;;;;5018066;28;20182;-78
2021/11/10 02:27:34;;;;;;;9.23;5.30;;;;;;;;;;5017086;28;20249;-78
2021/11/10 02:30:00;;;;;;;6.13;5.35;;;;;;;;;;5041149;28;20190;-78
2021/11/10 02:32:26;;;;;;;7.85;4.93;;;;;;;;;;5018706;28;20213;-78
2021/11/10 02:34:52;;;;;;;11.07;5.45;;;;;;;;;;5017302;28;20187;-78
2021/11/10 02:37:19;;;;;;;5.35;4.85;;;;;;;;;;5020748;28;20189;-78
2021/11/10 02:39:46;;;;;;;6.38;4.90;;;;;;;;;;5020025;28;20178;-78
2021/11/10 02:42:14;;;;;;;5.38;4.88;;;;;;;;;;5017303;28;20534;-78
2021/11/10 02:44:40;;;;;;;7.50;5.45;;;;;;;;;;5018089;28;20199;-78
2021/11/10 02:47:06;;;;;;;8.40;4.57;;;;;;;;;;5017374;28;20241;-78
2021/11/10 02:49:33;;;;;;;8.77;4.75;;;;;;;;;;5015644;28;20187;-78
2021/11/10 02:52:01;;;;;;;8.80;4.93;;;;;;;;;;5022646;28;20189;-78
2021/11/10 02:54:28;;;;;;;7.13;5.72;;;;;;;;;;5017473;28;20179;-78
2021/11/10 02:56:55;;;;;;;5.30;4.15;;;;;;;;;;5021575;28;20206;-78
2021/11/10 02:59:21;;;;;;;4.88;4.38;;;;;;;;;;5014386;28;20581;-78
2021/11/10 03:01:47;;;;;;;7.03;4.72;;;;;;;;;;5011443;28;20190;-79
2021/11/10 03:04:24;;;;;;;7.97;5.53;;;;;;;;;;5021277;28;20210;-78
2021/11/10 03:06:50;;;;;;;8.38;4.90;;;;;;;;;;5019676;28;20246;-78
2021/11/10 03:09:17;;;;;;;6.63;4.65;;;;;;;;;;5016539;28;20179;-79
2021/11/10 03:11:43;;;;;;;8.60;5.07;;;;;;;;;;5020486;28;20182;-79
2021/11/10 03:14:09;;;;;;;7.05;5.20;;;;;;;;;;5036830;28;20206;-79
2021/11/10 03:16:35;;;;;;;11.48;5.05;;;;;;;;;;5017734;28;20224;-79
2021/11/10 03:19:01;;;;;;;9.27;5.13;;;;;;;;;;5018182;28;20233;-79
2021/11/10 03:21:27;;;;;;;8.02;4.75;;;;;;;;;;5021210;28;20190;-79
2021/11/10 03:23:53;;;;;;;12.85;5.30;;;;;;;;;;5033083;28;20178;-79
2021/11/10 03:26:21;;;;;;;5.30;3.78;;;;;;;;;;5020988;28;20210;-79
2021/11/10 03:28:47;;;;;;;5.95;4.80;;;;;;;;;;5024850;28;20618;-79
2021/11/10 03:31:13;;;;;;;5.45;4.55;;;;;;;;;;5020508;28;20277;-79
2021/11/10 03:33:40;;;;;;;8.77;5.10;;;;;;;;;;5038080;28;20202;-79
2021/11/10 03:36:06;;;;;;;8.00;5.75;;;;;;;;;;5024481;28;20170;-79
2021/11/10 03:38:32;;;;;;;6.78;4.97;;;;;;;;;;5055497;28;20178;-79
2021/11/10 03:40:58;;;;;;;8.38;5.70;;;;;;;;;;5020218;28;20187;-79
2021/11/10 03:43:24;;;;;;;7.07;5.45;;;;;;;;;;5020347;28;20253;-79
2021/11/10 03:45:50;;;;;;;5.97;5.22;;;;;;;;;;5022986;28;20211;-79
2021/11/10 03:48:16;;;;;;;9.93;5.05;;;;;;;;;;5023835;28;20190;-78
2021/11/10 03:50:42;;;;;;;7.85;5.68;;;;;;;;;;5021467;28;20166;-78
2021/11/10 03:53:08;;;;;;;5.70;4.93;;;;;;;;;;5019778;28;20206;-78
2021/11/10 03:55:35;;;;;;;10.00;5.78;;;;;;;;;;5021166;28;20187;-79
2021/11/10 03:58:02;;;;;;;7.28;5.07;;;;;;;;;;5019418;28;20200;-79
2021/11/10 04:00:28;;;;;;;9.57;4.95;;;;;;;;;;5019544;28;20186;-79
2021/11/10 04:02:54;;;;;;;8.23;5.10;;;;;;;;;;5024441;28;20189;-79
2021/11/10 04:05:20;;;;;;;10.57;5.20;;;;;;;;;;5018136;28;20727;-79
2021/11/10 04:07:45;;;;;;;7.10;5.55;;;;;;;;;;5021421;28;20199;-80
2021/11/10 04:10:12;;;;;;;9.70;5.05;;;;;;;;;;5020213;28;20201;-79
2021/11/10 04:12:38;;;;;;;6.07;4.68;;;;;;;;;;5020139;28;20206;-79
2021/11/10 04:15:04;;;;;;;9.07;5.03;;;;;;;;;;5018948;28;20182;-79
2021/11/10 04:17:30;;;;;;;8.13;5.00;;;;;;;;;;5051688;28;20182;-79
2021/11/10 04:19:56;;;;;;;6.18;5.57;;;;;;;;;;5022266;28;20174;-79
2021/11/10 04:22:23;;;;;;;6.10;5.45;;;;;;;;;;5018021;28;20699;-79
2021/11/10 04:24:50;;;;;;;5.43;4.68;;;;;;;;;;5035367;28;20183;-79
2021/11/10 04:27:18;;;;;;;7.32;5.00;;;;;;;;;;5022721;28;20183;-79
2021/11/10 04:29:45;;;;;;;6.13;4.60;;;;;;;;;;5019095;28;20190;-79
2021/11/10 04:32:11;;;;;;;8.88;5.13;;;;;;;;;;5020443;28;20191;-79
2021/11/10 04:34:37;;;;;;;8.88;5.00;;;;;;;;;;5022876;28;20183;-79
2021/11/10 04:37:04;;;;;;;6.85;5.38;;;;;;;;;;5023400;28;20217;-79
2021/11/10 04:39:30;;;;;;;8.15;5.22;;;;;;;;;;5024492;28;20201;-79
2021/11/10 04:41:56;;;;;;;5.75;5.10;;;;;;;;;;5020580;28;20190;-79
2021/11/10 04:44:23;;;;;;;6.47;5.15;;;;;;;;;;5019869;28;20190;-79
2021/11/10 04:46:50;;;;;;;6.78;4.70;;;;;;;;;;5018345;28;20394;-79
2021/11/10 04:49:17;;;;;;;7.97;5.32;;;;;;;;;;5038719;28;20183;-79
2021/11/10 04:51:44;;;;;;;9.52;5.20;;;;;;;;;;5017004;28;20179;-79
2021/11/10 04:54:13;;;;;;;8.90;5.22;;;;;;;;;;5017188;28;20206;-79
2021/11/10 04:56:39;;;;;;;8.95;5.50;;;;;;;;;;5017966;28;20270;-79
2021/11/10 04:59:06;;;;;;;6.20;4.88;;;;;;;;;;5047210;28;20182;-79
2021/11/10 05:01:37;;;;;;;7.38;4.90;;;;;;;;;;5020539;28;20657;-79
2021/11/10 05:04:04;;;;;;;6.60;4.90;;;;;;;;;;5019190;28;20183;-79
2021/11/10 05:06:30;;;;;;;8.57;4.95;;;;;;;;;;5019255;28;20178;-79
2021/11/10 05:08:57;;;;;;;6.78;6.05;;;;;;;;;;5019972;28;20179;-79
2021/11/10 05:11:24;;;;;;;7.07;5.65;;;;;;;;;;5022729;28;20245;-79
2021/11/10 05:13:50;;;;;;;5.50;4.60;;;;;;;;;;5038393;28;20696;-79
2021/11/10 05:16:17;;;;;;;6.70;4.80;;;;;;;;;;5019519;28;20201;-79
2021/11/10 05:18:43;;;;;;;8.25;6.18;;;;;;;;;;5020296;28;20184;-79
2021/11/10 05:21:09;;;;;;;8.00;5.00;;;;;;;;;;5018532;28;20182;-79
2021/11/10 05:23:35;;;;;;;10.20;5.55;;;;;;;;;;5019091;28;20186;-79
2021/11/10 05:26:01;;;;;;;9.13;4.88;;;;;;;;;;5022649;28;20193;-79
2021/11/10 05:28:27;;;;;;;5.40;4.30;;;;;;;;;;5020599;28;20219;-79
2021/11/10 05:30:53;;;;;;;9.77;6.18;;;;;;;;;;5018408;28;20229;-79
2021/11/10 05:33:20;;;;;;;9.50;5.30;;;;;;;;;;5016740;28;20198;-79
2021/11/10 05:35:46;;;;;;;8.88;4.97;;;;;;;;;;5024925;28;20643;-78
2021/11/10 05:38:12;;;;;;;10.75;6.40;;;;;;;;;;5022452;28;20179;-78
2021/11/10 05:40:38;;;;;;;9.63;4.65;;;;;;;;;;5018663;28;20190;-78
2021/11/10 05:43:05;;;;;;;8.27;5.13;;;;;;;;;;5018947;28;20194;-79
2021/11/10 05:45:31;;;;;;;7.10;4.95;;;;;;;;;;5031454;28;20197;-79
2021/11/10 05:47:57;;;;;;;5.85;4.50;;;;;;;;;;5051012;28;20230;-79
2021/11/10 05:50:23;;;;;;;7.30;5.93;;;;;;;;;;5018157;28;20190;-79
2021/11/10 05:52:49;;;;;;;10.38;5.80;;;;;;;;;;5016292;28;20210;-78
2021/11/10 05:55:16;;;;;;;9.25;5.25;;;;;;;;;;5017708;28;20186;-78
2021/11/10 05:57:42;;;;;;;6.88;5.45;;;;;;;;;;5023243;28;20529;-78
2021/11/10 06:00:10;;;;;;;8.35;5.38;;;;;;;;;;5017339;28;20224;-78
2021/11/10 06:02:36;;;;;;;9.15;5.47;;;;;;;;;;5018576;28;20182;-79
2021/11/10 06:05:02;;;;;;;8.18;6.50;;;;;;;;;;5034719;28;20182;-78
2021/11/10 06:07:29;;;;;;;7.13;5.72;;;;;;;;;;5035023;28;20182;-79
2021/11/10 06:09:55;;;;;;;10.02;6.25;;;;;;;;;;5022903;28;20182;-78
2021/11/10 06:12:21;;;;;;;7.90;5.40;;;;;;;;;;5016169;28;20220;-78
2021/11/10 06:14:47;;;;;;;8.13;5.78;;;;;;;;;;5024014;28;20189;-79
2021/11/10 06:17:13;;;;;;;10.38;5.85;;;;;;;;;;5018300;28;20178;-79
2021/11/10 06:19:39;;;;;;;7.97;5.53;;;;;;;;;;5018403;28;20599;-79
2021/11/10 06:22:05;;;;;;;10.65;5.47;;;;;;;;;;5019247;28;20236;-78
2021/11/10 06:24:31;;;;;;;8.23;5.35;;;;;;;;;;5037305;28;20719;-78
2021/11/10 06:26:57;;;;;;;10.00;5.32;;;;;;;;;;5023072;28;20182;-78
2021/11/10 06:29:23;;;;;;;9.23;6.22;;;;;;;;;;5018592;28;20260;-78
2021/11/10 06:31:50;;;;;;;13.55;7.68;;;;;;;;;;5017513;28;20179;-78
2021/11/10 06:34:16;;;;;;;10.13;5.53;;;;;;;;;;5017855;28;20218;-77
2021/11/10 06:36:42;;;;;;;10.57;6.85;;;;;;;;;;5022395;28;20214;-78
2021/11/10 06:39:08;;;;;;;9.43;6.47;;;;;;;;;;5020379;28;20181;-78
2021/11/10 06:41:35;;;;;;;8.65;6.55;;;;;;;;;;5021178;28;20535;-78
2021/11/10 06:44:01;;;;;;;36.38;19.35;;;;;;;;;;5017736;28;20186;-79
2021/11/10 06:46:27;;;;;;;20.83;13.48;;;;;;;;;;5017270;28;20221;-78
2021/11/10 06:48:53;;;;;;;18.80;11.90;;;;;;;;;;5018900;28;20198;-79
2021/11/10 06:51:19;;;;;;;10.40;7.53;;;;;;;;;;5016912;28;20238;-79
2021/11/10 06:53:45;;;;;;;12.57;7.07;;;;;;;;;;5017698;28;20244;-79
2021/11/10 06:56:12;;;;;;;9.77;7.18;;;;;;;;;;5017417;28;20233;-79
2021/11/10 06:58:38;;;;;;;8.43;6.25;;;;;;;;;;5017685;28;20171;-79
2021/11/10 07:01:05;;;;;;;7.45;6.20;;;;;;;;;;5024169;28;20186;-79
2021/11/10 07:03:31;;;;;;;7.25;5.78;;;;;;;;;;5036094;28;20221;-78
2021/11/10 07:05:57;;;;;;;9.40;6.13;;;;;;;;;;5053280;28;20189;-77
2021/11/10 07:08:23;;;;;;;9.55;6.60;;;;;;;;;;5018212;28;20269;-78
2021/11/10 07:10:49;;;;;;;9.05;6.32;;;;;;;;;;5023583;28;20190;-80
2021/11/10 07:13:15;;;;;;;9.75;7.65;;;;;;;;;;5021152;28;20687;-79
2021/11/10 07:15:41;;;;;;;7.82;6.68;;;;;;;;;;5023440;28;20212;-79
2021/11/10 07:18:07;;;;;;;10.73;6.70;;;;;;;;;;5023933;28;20174;-80
2021/11/10 07:20:33;;;;;;;11.75;7.55;;;;;;;;;;5054382;28;20213;-79
2021/11/10 07:22:59;;;;;;;8.93;6.90;;;;;;;;;;5019438;28;20186;-81
2021/11/10 07:25:26;;;;;;;9.48;7.05;;;;;;;;;;5022780;28;20191;-79
2021/11/10 07:27:52;;;;;;;14.05;7.30;;;;;;;;;;5047808;28;20547;-79
2021/11/10 07:30:18;;;;;;;9.98;6.97;;;;;;;;;;5021964;28;20254;-79
2021/11/10 07:32:44;;;;;;;12.85;7.15;;;;;;;;;;5052930;28;20682;-79
2021/11/10 07:35:11;;;;;;;14.20;8.00;;;;;;;;;;5020189;28;20540;-79
2021/11/10 07:37:37;;;;;;;13.27;9.35;;;;;;;;;;5024650;28;20269;-79
2021/11/10 07:40:04;;;;;;;20.02;10.88;;;;;;;;;;5040784;28;20171;-79
2021/11/10 07:42:31;;;;;;;14.48;9.10;;;;;;;;;;5022821;28;20194;-79
2021/11/10 07:45:06;;;;;;;16.58;10.23;;;;;;;;;;5016996;28;20221;-80
2021/11/10 07:47:39;;;;;;;16.33;10.05;;;;;;;;;;5035567;28;20249;-79
2021/11/10 07:50:06;;;;;;;15.73;10.65;;;;;;;;;;5019616;28;20540;-79
2021/11/10 07:52:32;;;;;;;13.23;10.25;;;;;;;;;;5034711;28;20202;-79
2021/11/10 07:54:58;;;;;;;16.42;10.43;;;;;;;;;;5021150;28;20236;-81
2021/11/10 07:57:24;;;;;;;17.52;10.35;;;;;;;;;;5020113;28;20209;-80
2021/11/10 07:59:50;;;;;;;14.18;10.80;;;;;;;;;;5020671;28;20175;-79
2021/11/10 08:02:16;;;;;;;14.32;11.80;;;;;;;;;;5018254;28;20190;-79
2021/11/10 08:04:42;;;;;;;15.25;9.82;;;;;;;;;;5020512;28;20183;-79
2021/11/10 08:07:08;;;;;;;15.05;9.55;;;;;;;;;;5022785;28;20209;-79
2021/11/10 08:09:34;;;;;;;22.13;10.98;;;;;;;;;;5021342;28;20187;-79
2021/11/10 08:12:00;;;;;;;14.43;9.32;;;;;;;;;;5021615;28;20234;-79
2021/11/10 08:14:26;;;;;;;17.88;10.45;;;;;;;;;;5020475;28;20606;-78
2021/11/10 08:16:53;;;;;;;21.23;10.85;;;;;;;;;;5017673;28;20190;-79
2021/11/10 08:19:19;;;;;;;16.00;10.98;;;;;;;;;;5021920;28;20275;-80
2021/11/10 08:21:45;;;;;;;17.58;10.50;;;;;;;;;;5020251;28;20432;-79
2021/11/10 08:24:11;;;;;;;13.10;10.40;;;;;;;;;;5020206;28;20179;-80
2021/11/10 08:26:37;;;;;;;16.13;12.25;;;;;;;;;;5023095;28;20179;-80
2021/11/10 08:29:03;;;;;;;18.02;11.70;;;;;;;;;;5016753;28;20302;-79
2021/11/10 08:31:29;;;;;;;18.80;13.07;;;;;;;;;;5018052;28;20186;-80
2021/11/10 08:33:55;;;;;;;17.90;11.18;;;;;;;;;;5014402;28;20213;-80
2021/11/10 08:36:21;;;;;;;15.80;11.77;;;;;;;;;;5024096;28;20171;-80
2021/11/10 08:38:47;;;;;;;14.57;11.52;;;;;;;;;;5023019;28;20179;-80
2021/11/10 08:41:13;;;;;;;19.08;11.27;;;;;;;;;;5020856;28;20193;-80
2021/11/10 08:43:39;;;;;;;20.52;13.68;;;;;;;;;;5019282;28;20186;-80
2021/11/10 08:46:07;;;;;;;22.20;13.40;;;;;;;;;;5013268;28;20211;-80
2021/11/10 08:48:33;;;;;;;20.30;13.40;;;;;;;;;;5020042;28;20183;-80
2021/11/10 08:50:59;;;;;;;18.63;13.45;;;;;;;;;;5018027;28;20186;-80
2021/11/10 08:53:26;;;;;;;19.35;12.98;;;;;;;;;;5049528;28;20214;-80
2021/11/10 08:55:54;;;;;;;19.73;13.77;;;;;;;;;;5016003;28;20187;-80
2021/11/10 08:58:21;;;;;;;18.67;13.07;;;;;;;;;;5018466;28;20231;-80
2021/11/10 09:00:47;;;;;;;20.20;14.27;;;;;;;;;;5019493;28;20183;-81
2021/11/10 09:03:14;;;;;;;21.00;13.52;;;;;;;;;;5021844;28;20178;-81
2021/11/10 09:05:40;;;;;;;23.75;13.82;;;;;;;;;;5020844;28;20178;-81
2021/11/10 09:08:06;;;;;;;23.75;15.27;;;;;;;;;;5021002;28;20206;-81
2021/11/10 09:10:33;;;;;;;21.25;14.55;;;;;;;;;;5022302;28;20183;-80
2021/11/10 09:13:00;;;;;;;21.67;13.90;;;;;;;;;;5016878;28;20274;-81
2021/11/10 09:15:27;;;;;;;20.08;13.80;;;;;;;;;;5019876;28;20298;-81
2021/11/10 09:17:53;;;;;;;16.85;13.18;;;;;;;;;;5022449;28;20175;-81
2021/11/10 09:20:20;;;;;;;19.20;12.70;;;;;;;;;;5018641;28;20187;-82
2021/11/10 09:22:47;;;;;;;20.42;14.52;;;;;;;;;;5020110;28;20280;-81
2021/11/10 09:25:15;;;;;;;18.00;12.85;;;;;;;;;;5017367;28;20187;-81
2021/11/10 09:27:41;;;;;;;22.58;15.07;;;;;;;;;;5016495;28;20210;-81
2021/11/10 09:30:09;;;;;;;20.42;13.30;;;;;;;;;;5022513;28;20213;-80
2021/11/10 09:32:35;;;;;;;31.23;14.02;;;;;;;;;;5018278;28;20217;-81
2021/11/10 09:35:01;;;;;;;20.77;14.48;;;;;;;;;;5015655;28;20203;-82
2021/11/10 09:37:27;;;;;;;19.02;13.20;;;;;;;;;;5021605;28;20178;-82
2021/11/10 09:39:54;;;;;;;21.52;13.50;;;;;;;;;;5020973;28;20198;-81
2021/11/10 09:42:22;;;;;;;26.25;15.60;;;;;;;;;;5021379;28;20178;-81
2021/11/10 09:44:49;;;;;;;19.67;13.80;;;;;;;;;;5022398;28;20188;-82
2021/11/10 09:47:15;;;;;;;18.17;13.15;;;;;;;;;;5017468;28;20217;-82
2021/11/10 09:49:41;;;;;;;28.23;14.65;;;;;;;;;;5025037;28;20194;-81
2021/11/10 09:52:07;;;;;;;20.77;14.25;;;;;;;;;;5016932;28;20194;-81
2021/11/10 09:54:35;;;;;;;22.85;14.38;;;;;;;;;;5032130;28;20187;-81
2021/11/10 09:57:01;;;;;;;21.75;15.15;;;;;;;;;;5021876;28;20174;-81
2021/11/10 09:59:28;;;;;;;23.73;15.65;;;;;;;;;;5022106;28;20270;-81
2021/11/10 10:01:55;;;;;;;24.65;16.67;;;;;;;;;;5049144;28;20217;-81
2021/11/10 10:04:22;;;;;;;20.10;15.77;;;;;;;;;;5016571;28;20651;-82
2021/11/10 10:06:48;;;;;;;24.50;15.82;;;;;;;;;;5017499;28;20197;-81
2021/11/10 10:09:15;;;;;;;17.90;14.23;;;;;;;;;;5022324;28;20247;-82
2021/11/10 10:11:41;;;;;;;21.77;15.63;;;;;;;;;;5020546;28;20234;-82
2021/11/10 10:14:07;;;;;;;21.30;16.50;;;;;;;;;;5018096;28;20208;-82
2021/11/10 10:16:35;;;;;;;22.85;15.88;;;;;;;;;;5018096;28;20242;-82
2021/11/10 10:19:05;;;;;;;28.27;18.42;;;;;;;;;;5032851;28;20205;-82
2021/11/10 10:21:33;;;;;;;27.67;18.67;;;;;;;;;;5020619;28;20190;-82
2021/11/10 10:23:59;;;;;;;21.42;17.50;;;;;;;;;;5023742;28;20190;-81
2021/11/10 10:26:26;;;;;;;28.83;18.15;;;;;;;;;;5019503;28;20197;-82
2021/11/10 10:28:54;;;;;;;26.92;18.40;;;;;;;;;;5015743;28;20187;-81
2021/11/10 10:31:21;;;;;;;27.30;18.17;;;;;;;;;;5025435;28;20647;-82
2021/11/10 10:33:49;;;;;;;25.55;19.50;;;;;;;;;;5011211;28;20198;-82
2021/11/10 10:36:22;;;;;;;23.65;18.33;;;;;;;;;;5023836;28;20170;-82
2021/11/10 10:38:51;;;;;;;33.10;20.30;;;;;;;;;;5039316;28;20170;-82
2021/11/10 10:41:18;;;;;;;23.70;18.17;;;;;;;;;;5026193;28;20324;-82
2021/11/10 10:43:46;;;;;;;27.55;18.92;;;;;;;;;;5015028;28;20194;-82
2021/11/10 10:46:13;;;;;;;27.48;17.95;;;;;;;;;;5021299;28;20213;-82
2021/11/10 10:48:39;;;;;;;26.80;18.50;;;;;;;;;;5054945;28;20207;-81
2021/11/10 10:51:07;;;;;;;23.55;18.50;;;;;;;;;;5021911;28;20278;-81
2021/11/10 10:53:39;;;;;;;24.00;17.75;;;;;;;;;;5026281;28;20232;-81
2021/11/10 10:56:16;;;;;;;26.52;17.80;;;;;;;;;;5024386;28;20186;-81
2021/11/10 10:58:43;;;;;;;28.35;16.88;;;;;;;;;;5020459;28;20365;-81
2021/11/10 11:01:24;;;;;;;25.55;16.75;;;;;;;;;;5024134;28;20413;-81
2021/11/10 11:03:54;;;;;;;28.67;17.92;;;;;;;;;;5025084;28;20194;-82
2021/11/10 11:06:40;;;;;;;26.40;16.15;;;;;;;;;;5021745;28;20557;-82
2021/11/10 11:09:17;;;;;;;22.63;15.15;;;;;;;;;;5022523;28;20260;-82
2021/11/10 11:12:34;;;;;;;25.40;15.98;;;;;;;;;;5024330;28;20170;-82
2021/11/10 11:15:03;;;;;;;20.52;14.52;;;;;;;;;;5023002;28;20187;-82
2021/11/10 11:17:30;;;;;;;20.17;14.60;;;;;;;;;;5019701;28;20194;-82
2021/11/10 11:20:13;;;;;;;23.63;14.52;;;;;;;;;;5023191;28;20178;-81
2021/11/10 11:22:45;;;;;;;20.52;12.82;;;;;;;;;;5023587;28;20186;-81
2021/11/10 11:25:11;;;;;;;16.23;11.40;;;;;;;;;;5020965;28;20175;-82
2021/11/10 11:27:38;;;;;;;14.95;10.48;;;;;;;;;;5048868;28;20182;-81
2021/11/10 11:30:09;;;;;;;19.92;10.25;;;;;;;;;;5024738;28;20189;-80
2021/11/10 11:32:38;;;;;;;12.82;10.00;;;;;;;;;;5023507;28;20205;-81
2021/11/10 11:35:10;;;;;;;14.43;10.27;;;;;;;;;;5023198;28;20178;-81
2021/11/10 11:37:36;;;;;;;13.23;10.50;;;;;;;;;;5024519;28;20193;-81
2021/11/10 11:40:05;;;;;;;22.10;8.95;;;;;;;;;;5023257;28;20213;-82
2021/11/10 11:42:31;;;;;;;14.32;8.40;;;;;;;;;;5022288;28;20256;-81
2021/11/10 11:44:57;;;;;;;12.07;7.85;;;;;;;;;;5025171;28;20178;-82
2021/11/10 11:47:24;;;;;;;15.30;7.60;;;;;;;;;;5020815;28;20222;-81
2021/11/10 11:49:52;;;;;;;16.80;7.40;;;;;;;;;;5021972;28;20182;-82
2021/11/10 11:52:20;;;;;;;13.23;7.82;;;;;;;;;;5037736;28;20252;-81
2021/11/10 11:54:47;;;;;;;12.15;8.45;;;;;;;;;;5022716;28;20213;-81
2021/11/10 11:57:17;;;;;;;14.43;7.72;;;;;;;;;;5013374;28;20166;-81
2021/11/10 11:59:44;;;;;;;13.93;8.23;;;;;;;;;;5023948;28;20616;-80
2021/11/10 12:02:25;;;;;;;15.95;8.88;;;;;;;;;;5022368;28;20182;-82
2021/11/10 12:04:51;;;;;;;14.57;6.15;;;;;;;;;;5017855;28;20189;-82
2021/11/10 12:07:36;;;;;;;7.85;5.65;;;;;;;;;;5021839;28;20182;-82
2021/11/10 12:10:21;;;;;;;14.32;6.35;;;;;;;;;;5019944;28;20182;-82
2021/11/10 12:12:47;;;;;;;11.95;7.22;;;;;;;;;;5021650;28;20198;-83
2021/11/10 12:15:15;;;;;;;13.95;6.13;;;;;;;;;;5021186;28;20656;-82
2021/11/10 12:17:59;;;;;;;12.85;7.03;;;;;;;;;;5023634;28;20261;-81
2021/11/10 12:20:35;;;;;;;11.63;8.43;;;;;;;;;;5017503;28;20187;-81
2021/11/10 12:23:01;;;;;;;11.95;7.80;;;;;;;;;;5016580;28;20197;-81
2021/11/10 12:25:27;;;;;;;11.32;7.93;;;;;;;;;;5018069;28;20209;-81
2021/11/10 12:27:53;;;;;;;12.87;7.73;;;;;;;;;;5021216;28;20182;-82
2021/11/10 12:30:22;;;;;;;14.88;7.60;;;;;;;;;;5022011;28;20511;-82
2021/11/10 12:33:01;;;;;;;12.57;8.60;;;;;;;;;;5025724;28;20194;-82
2021/11/10 12:35:30;;;;;;;14.77;7.85;;;;;;;;;;5021788;28;20221;-82
2021/11/10 12:37:57;;;;;;;15.55;9.90;;;;;;;;;;5021381;28;20182;-81
2021/11/10 12:40:32;;;;;;;16.38;9.20;;;;;;;;;;5037856;28;20765;-81
2021/11/10 12:43:01;;;;;;;17.02;9.60;;;;;;;;;;5021330;28;20182;-82
2021/11/10 12:45:36;;;;;;;14.23;9.23;;;;;;;;;;5021438;28;20245;-82
2021/11/10 12:48:04;;;;;;;20.90;9.50;;;;;;;;;;5020939;28;20236;-82
2021/11/10 12:50:40;;;;;;;13.07;9.25;;;;;;;;;;5023704;28;20189;-82
2021/11/10 12:53:08;;;;;;;13.13;8.30;;;;;;;;;;5023143;28;20574;-82
2021/11/10 12:55:36;;;;;;;12.77;8.77;;;;;;;;;;5019819;28;20213;-82
2021/11/10 12:58:16;;;;;;;17.27;8.85;;;;;;;;;;5020504;28;20186;-82
2021/11/10 13:00:43;;;;;;;14.25;9.40;;;;;;;;;;5017295;28;20277;-81
2021/11/10 13:03:18;;;;;;;11.95;9.15;;;;;;;;;;5022126;28;20270;-80
2021/11/10 13:05:52;;;;;;;17.90;10.88;;;;;;;;;;5024267;28;20185;-82
2021/11/10 13:08:29;;;;;;;18.48;8.88;;;;;;;;;;5019831;28;20189;-82
2021/11/10 13:10:55;;;;;;;19.13;9.13;;;;;;;;;;5022501;28;20182;-82
2021/11/10 13:13:22;;;;;;;13.10;10.00;;;;;;;;;;5036049;28;20206;-82
2021/11/10 13:15:48;;;;;;;15.63;9.55;;;;;;;;;;5020243;28;20238;-82
2021/11/10 13:18:18;;;;;;;14.45;8.90;;;;;;;;;;5021558;28;20261;-82
2021/11/10 13:20:45;;;;;;;14.07;9.02;;;;;;;;;;5016681;28;20179;-81
2021/11/10 13:23:11;;;;;;;16.10;8.50;;;;;;;;;;5018913;28;20277;-82
2021/11/10 13:25:38;;;;;;;17.13;8.77;;;;;;;;;;5019841;28;20221;-81
2021/11/10 13:28:05;;;;;;;12.70;9.50;;;;;;;;;;5018762;28;20183;-81
2021/11/10 13:30:34;;;;;;;16.33;8.25;;;;;;;;;;5021610;28;20226;-81
2021/11/10 13:33:16;;;;;;;10.05;6.28;;;;;;;;;;5015589;28;20201;-82
2021/11/10 13:35:43;;;;;;;12.52;8.27;;;;;;;;;;5022851;28;20239;-82
2021/11/10 13:38:09;;;;;;;11.35;6.97;;;;;;;;;;5020129;28;20209;-82
2021/11/10 13:40:35;;;;;;;11.00;5.20;;;;;;;;;;5016685;28;20179;-81
2021/11/10 13:43:01;;;;;;;11.63;5.40;;;;;;;;;;5016923;28;20313;-82
2021/11/10 13:45:29;;;;;;;14.35;6.32;;;;;;;;;;5020370;28;20202;-81
2021/11/10 13:48:01;;;;;;;11.30;6.07;;;;;;;;;;5020323;28;20222;-81
2021/11/10 13:50:29;;;;;;;9.75;5.85;;;;;;;;;;5019474;28;20267;-81
2021/11/10 13:52:59;;;;;;;16.10;7.50;;;;;;;;;;5019100;28;20206;-81
2021/11/10 13:55:25;;;;;;;19.15;7.75;;;;;;;;;;5016911;28;20228;-82
2021/11/10 13:57:51;;;;;;;11.13;7.10;;;;;;;;;;5018277;28;20636;-82
2021/11/10 14:00:18;;;;;;;11.55;7.75;;;;;;;;;;5020479;28;20174;-82
2021/11/10 14:02:48;;;;;;;14.63;8.10;;;;;;;;;;5019320;28;20182;-82
2021/11/10 14:05:16;;;;;;;13.07;6.55;;;;;;;;;;5020105;28;20194;-81
2021/11/10 14:07:43;;;;;;;9.93;8.25;;;;;;;;;;5020748;28;20641;-82
2021/11/10 14:10:17;;;;;;;10.10;7.47;;;;;;;;;;5019527;28;20182;-81
2021/11/10 14:12:44;;;;;;;10.35;6.60;;;;;;;;;;5019336;28;20198;-82
2021/11/10 14:15:28;;;;;;;7.47;5.85;;;;;;;;;;5020616;28;20183;-81
2021/11/10 14:17:59;;;;;;;11.07;5.93;;;;;;;;;;5021237;28;20186;-82
2021/11/10 14:20:32;;;;;;;10.65;5.60;;;;;;;;;;5018774;28;20193;-82
2021/11/10 14:23:01;;;;;;;8.82;6.15;;;;;;;;;;5019167;28;20197;-81
2021/11/10 14:25:28;;;;;;;10.93;6.10;;;;;;;;;;5019769;28;20201;-83
2021/11/10 14:27:55;;;;;;;7.95;5.63;;;;;;;;;;5017311;28;20183;-82
2021/11/10 14:30:22;;;;;;;11.98;6.60;;;;;;;;;;5021753;28;20199;-82
2021/11/10 14:32:49;;;;;;;11.98;6.72;;;;;;;;;;5022509;28;20210;-82